Strona główna
METAR-TAF:

METAR-TAF

Lotnisko :

Skyhaven Airport

Rochester, New Hampshire, Stany Zjednoczone

Szerokość geograficzna: 43-16-41N, Długość geograficzna: 070-55-20W, wysokość: 98 m

Aktualna obserwacja pogody

Raport powstał 24 minut temu, godzina 10:35 UTC
Wiatr 6 kt od północno-północny wschód
Temperatura 2°C
Wilgotność 93%
Ciśnienie 1006 hPa
Widzialność: 8.0 km
Rozproszone chmury na wysokości 600 ft
Zachmurzenie całkowite na wysokości 1100 ft
zamglenie

METAR: KDAW 191035Z AUTO 03006KT 5SM BR SCT006 OVC011 02/01 A2971 RMK AO2 I1000 T00220011

czas: 05:59 (10:59 UTC)


TAF: brakujący

Obserwacja i prognoza pogody dla ponad 4000 lotnisk (raport METAR i TAF).

Dostępne stacje oznaczono żółtymi i czerwonymi punktami na mapie.

Najedź kursorem aby zobaczyć nazwę stacji.

Kliknij aby zobaczyć obserwacje i prognozy pogody.

Aby zmienić mapę: kliknij na zielony przycisk z czarnym krzyżykiem, aby powiększyć; na zielony przycisk z myślnikiem, aby pomniejszyć; na zielone strzałki, aby przejść do map sąsiednich.


METAR-TAF: